sensor_id;sensor_type;location;lat;lon;timestamp;temperature;humidity
4673;DHT22;61885;53.560;9.940;2022-12-18T00:00:28;-3.70;99.90
4673;DHT22;61885;53.560;9.940;2022-12-18T00:03:02;-3.70;99.90
4673;DHT22;61885;53.560;9.940;2022-12-18T00:05:49;-3.70;99.90
4673;DHT22;61885;53.560;9.940;2022-12-18T00:08:19;-3.60;99.90
4673;DHT22;61885;53.560;9.940;2022-12-18T00:10:49;-3.60;99.90
4673;DHT22;61885;53.560;9.940;2022-12-18T00:13:20;-3.60;99.90
4673;DHT22;61885;53.560;9.940;2022-12-18T00:15:52;-3.50;99.90
4673;DHT22;61885;53.560;9.940;2022-12-18T00:18:22;-3.50;99.90
4673;DHT22;61885;53.560;9.940;2022-12-18T00:20:54;-3.60;99.90
4673;DHT22;61885;53.560;9.940;2022-12-18T00:23:27;-3.60;99.90
4673;DHT22;61885;53.560;9.940;2022-12-18T00:25:58;-3.60;99.90
4673;DHT22;61885;53.560;9.940;2022-12-18T00:28:28;-3.60;99.90
4673;DHT22;61885;53.560;9.940;2022-12-18T00:31:05;-3.50;99.90
4673;DHT22;61885;53.560;9.940;2022-12-18T00:33:38;-3.60;99.90
4673;DHT22;61885;53.560;9.940;2022-12-18T00:36:14;-3.60;99.90
4673;DHT22;61885;53.560;9.940;2022-12-18T00:38:44;-3.60;99.90
4673;DHT22;61885;53.560;9.940;2022-12-18T00:41:16;-3.60;99.90
4673;DHT22;61885;53.560;9.940;2022-12-18T00:44:09;-3.50;99.90
4673;DHT22;61885;53.560;9.940;2022-12-18T00:46:37;-3.50;99.90
4673;DHT22;61885;53.560;9.940;2022-12-18T00:49:07;-3.40;99.90
4673;DHT22;61885;53.560;9.940;2022-12-18T00:51:41;-3.60;99.90
4673;DHT22;61885;53.560;9.940;2022-12-18T00:54:11;-3.60;99.90
4673;DHT22;61885;53.560;9.940;2022-12-18T00:56:41;-3.70;99.90
4673;DHT22;61885;53.560;9.940;2022-12-18T00:59:10;-3.70;99.90
4673;DHT22;61885;53.560;9.940;2022-12-18T01:01:40;-3.70;99.90
4673;DHT22;61885;53.560;9.940;2022-12-18T01:04:10;-3.80;99.90
4673;DHT22;61885;53.560;9.940;2022-12-18T01:06:42;-3.80;99.90
4673;DHT22;61885;53.560;9.940;2022-12-18T01:09:13;-3.80;99.90
4673;DHT22;61885;53.560;9.940;2022-12-18T01:11:43;-3.90;99.90
4673;DHT22;61885;53.560;9.940;2022-12-18T01:14:16;-3.80;99.90
4673;DHT22;61885;53.560;9.940;2022-12-18T01:16:45;-3.80;99.90
4673;DHT22;61885;53.560;9.940;2022-12-18T01:19:15;-3.70;99.90
4673;DHT22;61885;53.560;9.940;2022-12-18T01:21:47;-3.80;99.90
4673;DHT22;61885;53.560;9.940;2022-12-18T01:24:16;-3.80;99.90
4673;DHT22;61885;53.560;9.940;2022-12-18T01:26:47;-3.80;99.90
4673;DHT22;61885;53.560;9.940;2022-12-18T01:29:17;-3.90;99.90
4673;DHT22;61885;53.560;9.940;2022-12-18T01:31:47;-3.90;99.90
4673;DHT22;61885;53.560;9.940;2022-12-18T01:34:16;-4.00;99.90
4673;DHT22;61885;53.560;9.940;2022-12-18T01:36:49;-4.00;99.90
4673;DHT22;61885;53.560;9.940;2022-12-18T01:39:22;-4.00;99.90
4673;DHT22;61885;53.560;9.940;2022-12-18T01:41:52;-4.00;99.90
4673;DHT22;61885;53.560;9.940;2022-12-18T01:44:57;-4.00;99.90
4673;DHT22;61885;53.560;9.940;2022-12-18T01:47:33;-3.90;99.90
4673;DHT22;61885;53.560;9.940;2022-12-18T01:50:08;-4.00;99.90
4673;DHT22;61885;53.560;9.940;2022-12-18T01:52:47;-4.00;99.90
4673;DHT22;61885;53.560;9.940;2022-12-18T01:55:20;-3.90;99.90
4673;DHT22;61885;53.560;9.940;2022-12-18T01:57:54;-3.90;99.90
4673;DHT22;61885;53.560;9.940;2022-12-18T02:00:26;-4.00;99.90
4673;DHT22;61885;53.560;9.940;2022-12-18T02:02:59;-4.00;99.90
4673;DHT22;61885;53.560;9.940;2022-12-18T02:05:40;-4.10;99.90
4673;DHT22;61885;53.560;9.940;2022-12-18T02:08:20;-4.00;99.90
4673;DHT22;61885;53.560;9.940;2022-12-18T02:10:57;-4.10;99.90
4673;DHT22;61885;53.560;9.940;2022-12-18T02:13:36;-4.10;99.90
4673;DHT22;61885;53.560;9.940;2022-12-18T02:16:19;-4.00;99.90
4673;DHT22;61885;53.560;9.940;2022-12-18T02:19:03;-4.00;99.90
4673;DHT22;61885;53.560;9.940;2022-12-18T02:21:55;-4.10;99.90
4673;DHT22;61885;53.560;9.940;2022-12-18T02:24:37;-4.20;99.90
4673;DHT22;61885;53.560;9.940;2022-12-18T02:27:13;-4.20;99.90
4673;DHT22;61885;53.560;9.940;2022-12-18T02:29:46;-4.20;99.90
4673;DHT22;61885;53.560;9.940;2022-12-18T02:32:21;-4.20;99.90
4673;DHT22;61885;53.560;9.940;2022-12-18T02:34:55;-4.10;99.90
4673;DHT22;61885;53.560;9.940;2022-12-18T02:37:28;-4.20;99.90
4673;DHT22;61885;53.560;9.940;2022-12-18T02:39:59;-4.20;99.90
4673;DHT22;61885;53.560;9.940;2022-12-18T02:42:32;-4.20;99.90
4673;DHT22;61885;53.560;9.940;2022-12-18T02:45:05;-4.20;99.90
4673;DHT22;61885;53.560;9.940;2022-12-18T02:47:39;-4.20;99.90
4673;DHT22;61885;53.560;9.940;2022-12-18T02:50:16;-4.10;99.90
4673;DHT22;61885;53.560;9.940;2022-12-18T02:52:55;-4.20;99.90
4673;DHT22;61885;53.560;9.940;2022-12-18T02:55:40;-4.10;99.90
4673;DHT22;61885;53.560;9.940;2022-12-18T02:58:20;-4.00;99.90
4673;DHT22;61885;53.560;9.940;2022-12-18T03:00:59;-4.10;99.90
4673;DHT22;61885;53.560;9.940;2022-12-18T03:03:36;-4.10;99.90
4673;DHT22;61885;53.560;9.940;2022-12-18T03:06:10;-4.20;99.90
4673;DHT22;61885;53.560;9.940;2022-12-18T03:08:45;-4.20;99.90
4673;DHT22;61885;53.560;9.940;2022-12-18T03:11:16;-4.20;99.90
4673;DHT22;61885;53.560;9.940;2022-12-18T03:14:14;-4.20;99.90
4673;DHT22;61885;53.560;9.940;2022-12-18T03:16:45;-4.20;99.80
4673;DHT22;61885;53.560;9.940;2022-12-18T03:19:20;-4.20;98.80
4673;DHT22;61885;53.560;9.940;2022-12-18T03:21:54;-4.20;99.10
4673;DHT22;61885;53.560;9.940;2022-12-18T03:24:27;-4.30;98.90
4673;DHT22;61885;53.560;9.940;2022-12-18T03:27:00;-4.30;99.40
4673;DHT22;61885;53.560;9.940;2022-12-18T03:29:36;-4.40;98.90
4673;DHT22;61885;53.560;9.940;2022-12-18T03:32:11;-4.40;99.30
4673;DHT22;61885;53.560;9.940;2022-12-18T03:34:42;-4.30;98.90
4673;DHT22;61885;53.560;9.940;2022-12-18T03:37:13;-4.20;97.10
4673;DHT22;61885;53.560;9.940;2022-12-18T03:39:42;-4.30;95.90
4673;DHT22;61885;53.560;9.940;2022-12-18T03:42:16;-4.30;96.10
4673;DHT22;61885;53.560;9.940;2022-12-18T03:44:57;-4.30;96.40
4673;DHT22;61885;53.560;9.940;2022-12-18T03:47:35;-4.30;96.00
4673;DHT22;61885;53.560;9.940;2022-12-18T03:50:11;-4.30;95.50
4673;DHT22;61885;53.560;9.940;2022-12-18T03:52:45;-4.40;94.80
4673;DHT22;61885;53.560;9.940;2022-12-18T03:55:27;-4.30;95.00
4673;DHT22;61885;53.560;9.940;2022-12-18T03:58:01;-4.30;95.50
4673;DHT22;61885;53.560;9.940;2022-12-18T04:00:35;-4.40;95.20
4673;DHT22;61885;53.560;9.940;2022-12-18T04:03:06;-4.50;95.90
4673;DHT22;61885;53.560;9.940;2022-12-18T04:05:37;-4.50;95.20
4673;DHT22;61885;53.560;9.940;2022-12-18T04:08:08;-4.40;95.80
4673;DHT22;61885;53.560;9.940;2022-12-18T04:10:38;-4.50;96.00
4673;DHT22;61885;53.560;9.940;2022-12-18T04:13:09;-4.50;95.60
4673;DHT22;61885;53.560;9.940;2022-12-18T04:15:45;-4.60;96.80
4673;DHT22;61885;53.560;9.940;2022-12-18T04:18:15;-4.60;97.80
4673;DHT22;61885;53.560;9.940;2022-12-18T04:20:45;-4.50;97.70
4673;DHT22;61885;53.560;9.940;2022-12-18T04:23:14;-4.50;96.80
4673;DHT22;61885;53.560;9.940;2022-12-18T04:25:46;-4.50;97.30
4673;DHT22;61885;53.560;9.940;2022-12-18T04:28:16;-4.40;96.70
4673;DHT22;61885;53.560;9.940;2022-12-18T04:30:49;-4.40;96.90
4673;DHT22;61885;53.560;9.940;2022-12-18T04:33:21;-4.40;97.00
4673;DHT22;61885;53.560;9.940;2022-12-18T04:35:50;-4.40;96.70
4673;DHT22;61885;53.560;9.940;2022-12-18T04:38:22;-4.50;97.10
4673;DHT22;61885;53.560;9.940;2022-12-18T04:40:57;-4.50;97.40
4673;DHT22;61885;53.560;9.940;2022-12-18T04:43:34;-4.50;98.20
4673;DHT22;61885;53.560;9.940;2022-12-18T04:46:08;-4.50;97.80
4673;DHT22;61885;53.560;9.940;2022-12-18T04:48:37;-4.50;97.60
4673;DHT22;61885;53.560;9.940;2022-12-18T04:51:07;-4.50;96.90
4673;DHT22;61885;53.560;9.940;2022-12-18T04:53:36;-4.50;97.30
4673;DHT22;61885;53.560;9.940;2022-12-18T04:56:08;-4.50;96.90
4673;DHT22;61885;53.560;9.940;2022-12-18T04:58:41;-4.50;96.00
4673;DHT22;61885;53.560;9.940;2022-12-18T05:01:16;-4.50;95.60
4673;DHT22;61885;53.560;9.940;2022-12-18T05:03:46;-4.60;94.80
4673;DHT22;61885;53.560;9.940;2022-12-18T05:06:15;-4.70;96.30
4673;DHT22;61885;53.560;9.940;2022-12-18T05:08:45;-4.70;96.40
4673;DHT22;61885;53.560;9.940;2022-12-18T05:11:15;-4.70;95.80
4673;DHT22;61885;53.560;9.940;2022-12-18T05:13:45;-4.80;95.60
4673;DHT22;61885;53.560;9.940;2022-12-18T05:16:19;-4.90;96.50
4673;DHT22;61885;53.560;9.940;2022-12-18T05:18:48;-4.90;97.70
4673;DHT22;61885;53.560;9.940;2022-12-18T05:21:18;-4.90;97.00
4673;DHT22;61885;53.560;9.940;2022-12-18T05:23:50;-4.90;96.80
4673;DHT22;61885;53.560;9.940;2022-12-18T05:26:22;-4.90;97.70
4673;DHT22;61885;53.560;9.940;2022-12-18T05:28:52;-4.90;97.10
4673;DHT22;61885;53.560;9.940;2022-12-18T05:31:24;-4.90;96.50
4673;DHT22;61885;53.560;9.940;2022-12-18T05:33:57;-4.90;96.70
4673;DHT22;61885;53.560;9.940;2022-12-18T05:36:28;-5.00;97.00
4673;DHT22;61885;53.560;9.940;2022-12-18T05:38:59;-5.00;97.40
4673;DHT22;61885;53.560;9.940;2022-12-18T05:41:32;-5.00;97.80
4673;DHT22;61885;53.560;9.940;2022-12-18T05:44:03;-5.00;97.80
4673;DHT22;61885;53.560;9.940;2022-12-18T05:46:37;-5.00;97.50
4673;DHT22;61885;53.560;9.940;2022-12-18T05:49:07;-5.00;97.40
4673;DHT22;61885;53.560;9.940;2022-12-18T05:51:36;-5.10;98.00
4673;DHT22;61885;53.560;9.940;2022-12-18T05:54:06;-5.10;98.60
4673;DHT22;61885;53.560;9.940;2022-12-18T05:56:36;-5.10;98.50
4673;DHT22;61885;53.560;9.940;2022-12-18T05:59:06;-5.10;97.80
4673;DHT22;61885;53.560;9.940;2022-12-18T06:01:39;-5.00;98.70
4673;DHT22;61885;53.560;9.940;2022-12-18T06:04:17;-5.10;98.50
4673;DHT22;61885;53.560;9.940;2022-12-18T06:06:46;-5.10;98.00
4673;DHT22;61885;53.560;9.940;2022-12-18T06:09:16;-5.00;99.30
4673;DHT22;61885;53.560;9.940;2022-12-18T06:11:49;-5.00;98.30
4673;DHT22;61885;53.560;9.940;2022-12-18T06:14:22;-5.10;98.70
4673;DHT22;61885;53.560;9.940;2022-12-18T06:16:55;-5.10;98.60
4673;DHT22;61885;53.560;9.940;2022-12-18T06:19:30;-5.10;98.30
4673;DHT22;61885;53.560;9.940;2022-12-18T06:22:03;-5.10;98.30
4673;DHT22;61885;53.560;9.940;2022-12-18T06:24:32;-5.20;98.10
4673;DHT22;61885;53.560;9.940;2022-12-18T06:27:04;-5.20;99.30
4673;DHT22;61885;53.560;9.940;2022-12-18T06:29:33;-5.30;99.80
4673;DHT22;61885;53.560;9.940;2022-12-18T06:32:05;-5.30;99.90
4673;DHT22;61885;53.560;9.940;2022-12-18T06:34:40;-5.00;99.90
4673;DHT22;61885;53.560;9.940;2022-12-18T06:37:09;-5.20;99.70
4673;DHT22;61885;53.560;9.940;2022-12-18T06:39:39;-5.10;99.00
4673;DHT22;61885;53.560;9.940;2022-12-18T06:42:09;-5.10;99.30
4673;DHT22;61885;53.560;9.940;2022-12-18T06:44:41;-5.20;97.80
4673;DHT22;61885;53.560;9.940;2022-12-18T06:47:13;-5.20;98.40
4673;DHT22;61885;53.560;9.940;2022-12-18T06:49:43;-5.20;98.80
4673;DHT22;61885;53.560;9.940;2022-12-18T06:52:12;-5.10;98.70
4673;DHT22;61885;53.560;9.940;2022-12-18T06:54:42;-5.10;98.30
4673;DHT22;61885;53.560;9.940;2022-12-18T06:57:12;-5.10;97.40
4673;DHT22;61885;53.560;9.940;2022-12-18T06:59:41;-5.10;98.10
4673;DHT22;61885;53.560;9.940;2022-12-18T07:02:14;-5.10;97.80
4673;DHT22;61885;53.560;9.940;2022-12-18T07:04:44;-5.20;97.30
4673;DHT22;61885;53.560;9.940;2022-12-18T07:07:13;-5.10;98.30
4673;DHT22;61885;53.560;9.940;2022-12-18T07:09:43;-5.10;97.60
4673;DHT22;61885;53.560;9.940;2022-12-18T07:12:13;-5.20;98.30
4673;DHT22;61885;53.560;9.940;2022-12-18T07:14:42;-5.10;98.00
4673;DHT22;61885;53.560;9.940;2022-12-18T07:17:15;-5.10;96.40
4673;DHT22;61885;53.560;9.940;2022-12-18T07:19:45;-5.20;96.90
4673;DHT22;61885;53.560;9.940;2022-12-18T07:22:16;-5.20;97.60
4673;DHT22;61885;53.560;9.940;2022-12-18T07:24:45;-5.20;97.30
4673;DHT22;61885;53.560;9.940;2022-12-18T07:27:15;-5.20;98.10
4673;DHT22;61885;53.560;9.940;2022-12-18T07:29:45;-5.10;97.90
4673;DHT22;61885;53.560;9.940;2022-12-18T07:32:17;-5.00;96.30
4673;DHT22;61885;53.560;9.940;2022-12-18T07:34:47;-5.10;95.20
4673;DHT22;61885;53.560;9.940;2022-12-18T07:37:22;-5.20;95.00
4673;DHT22;61885;53.560;9.940;2022-12-18T07:39:53;-5.20;97.00
4673;DHT22;61885;53.560;9.940;2022-12-18T07:42:23;-5.10;96.90
4673;DHT22;61885;53.560;9.940;2022-12-18T07:45:04;-5.10;96.80
4673;DHT22;61885;53.560;9.940;2022-12-18T07:47:37;-5.10;97.20
4673;DHT22;61885;53.560;9.940;2022-12-18T07:50:09;-5.10;97.10
4673;DHT22;61885;53.560;9.940;2022-12-18T07:52:40;-5.10;96.20
4673;DHT22;61885;53.560;9.940;2022-12-18T07:55:09;-5.10;97.20
4673;DHT22;61885;53.560;9.940;2022-12-18T07:57:39;-5.10;96.60
4673;DHT22;61885;53.560;9.940;2022-12-18T08:00:11;-5.00;97.30
4673;DHT22;61885;53.560;9.940;2022-12-18T08:02:45;-4.90;96.70
4673;DHT22;61885;53.560;9.940;2022-12-18T08:05:15;-4.90;95.70
4673;DHT22;61885;53.560;9.940;2022-12-18T08:07:45;-4.90;95.90
4673;DHT22;61885;53.560;9.940;2022-12-18T08:10:16;-4.80;95.60
4673;DHT22;61885;53.560;9.940;2022-12-18T08:13:05;-4.80;94.70
4673;DHT22;61885;53.560;9.940;2022-12-18T08:15:35;-4.80;94.70
4673;DHT22;61885;53.560;9.940;2022-12-18T08:18:12;-4.60;93.30
4673;DHT22;61885;53.560;9.940;2022-12-18T08:20:41;-4.60;92.30
4673;DHT22;61885;53.560;9.940;2022-12-18T08:23:11;-4.60;91.00
4673;DHT22;61885;53.560;9.940;2022-12-18T08:25:41;-4.50;92.00
4673;DHT22;61885;53.560;9.940;2022-12-18T08:28:11;-4.50;90.30
4673;DHT22;61885;53.560;9.940;2022-12-18T08:30:51;-4.50;90.50
4673;DHT22;61885;53.560;9.940;2022-12-18T08:33:29;-4.50;87.40
4673;DHT22;61885;53.560;9.940;2022-12-18T08:36:00;-4.60;88.50
4673;DHT22;61885;53.560;9.940;2022-12-18T08:38:31;-4.50;90.20
4673;DHT22;61885;53.560;9.940;2022-12-18T08:41:06;-4.50;88.00
4673;DHT22;61885;53.560;9.940;2022-12-18T08:43:36;-4.50;88.80
4673;DHT22;61885;53.560;9.940;2022-12-18T08:46:42;-4.50;88.00
4673;DHT22;61885;53.560;9.940;2022-12-18T08:49:13;-4.40;85.70
4673;DHT22;61885;53.560;9.940;2022-12-18T08:51:57;-4.50;84.60
4673;DHT22;61885;53.560;9.940;2022-12-18T08:54:31;-4.40;84.80
4673;DHT22;61885;53.560;9.940;2022-12-18T08:57:03;-4.40;81.60
4673;DHT22;61885;53.560;9.940;2022-12-18T08:59:34;-4.40;82.00
4673;DHT22;61885;53.560;9.940;2022-12-18T09:02:11;-4.30;83.20
4673;DHT22;61885;53.560;9.940;2022-12-18T09:04:43;-4.20;82.20
4673;DHT22;61885;53.560;9.940;2022-12-18T09:07:20;-4.10;81.00
4673;DHT22;61885;53.560;9.940;2022-12-18T09:09:50;-4.20;77.20
4673;DHT22;61885;53.560;9.940;2022-12-18T09:12:22;-4.20;77.90
4673;DHT22;61885;53.560;9.940;2022-12-18T09:14:52;-4.10;77.00
4673;DHT22;61885;53.560;9.940;2022-12-18T09:17:23;-4.10;77.00
4673;DHT22;61885;53.560;9.940;2022-12-18T09:19:55;-4.00;76.50
4673;DHT22;61885;53.560;9.940;2022-12-18T09:22:27;-4.00;74.20
4673;DHT22;61885;53.560;9.940;2022-12-18T09:25:00;-1.90;99.90
4673;DHT22;61885;53.560;9.940;2022-12-18T09:27:30;0.50;99.90
4673;DHT22;61885;53.560;9.940;2022-12-18T09:30:02;0.80;99.90
4673;DHT22;61885;53.560;9.940;2022-12-18T09:32:32;-0.90;34.30
4673;DHT22;61885;53.560;9.940;2022-12-18T09:35:05;-2.30;48.10
4673;DHT22;61885;53.560;9.940;2022-12-18T09:37:38;-2.80;59.40
4673;DHT22;61885;53.560;9.940;2022-12-18T09:40:13;-3.00;61.30
4673;DHT22;61885;53.560;9.940;2022-12-18T09:42:45;-3.20;65.00
4673;DHT22;61885;53.560;9.940;2022-12-18T09:45:26;-3.20;65.60
4673;DHT22;61885;53.560;9.940;2022-12-18T09:47:57;-3.30;68.80
4673;DHT22;61885;53.560;9.940;2022-12-18T09:50:32;-3.20;67.10
4673;DHT22;61885;53.560;9.940;2022-12-18T09:53:07;-3.20;67.10
4673;DHT22;61885;53.560;9.940;2022-12-18T09:55:44;-3.10;65.80
4673;DHT22;61885;53.560;9.940;2022-12-18T09:58:37;-3.10;62.30
4673;DHT22;61885;53.560;9.940;2022-12-18T10:01:18;-3.00;62.40
4673;DHT22;61885;53.560;9.940;2022-12-18T10:03:48;-2.90;60.00
4673;DHT22;61885;53.560;9.940;2022-12-18T10:06:31;-2.90;59.10
4673;DHT22;61885;53.560;9.940;2022-12-18T10:09:17;-2.80;56.10
4673;DHT22;61885;53.560;9.940;2022-12-18T10:12:00;-2.90;55.30
4673;DHT22;61885;53.560;9.940;2022-12-18T10:14:39;-2.90;55.90
4673;DHT22;61885;53.560;9.940;2022-12-18T10:17:21;-2.90;58.20
4673;DHT22;61885;53.560;9.940;2022-12-18T10:19:56;-2.80;56.40
4673;DHT22;61885;53.560;9.940;2022-12-18T10:22:41;-2.70;56.10
4673;DHT22;61885;53.560;9.940;2022-12-18T10:25:19;-2.70;53.50
4673;DHT22;61885;53.560;9.940;2022-12-18T10:27:54;-2.60;53.10
4673;DHT22;61885;53.560;9.940;2022-12-18T10:30:26;-2.70;52.30
4673;DHT22;61885;53.560;9.940;2022-12-18T10:33:00;-2.60;52.60
4673;DHT22;61885;53.560;9.940;2022-12-18T10:35:31;-2.50;50.50
4673;DHT22;61885;53.560;9.940;2022-12-18T10:38:25;-2.50;50.00
4673;DHT22;61885;53.560;9.940;2022-12-18T10:40:57;-2.30;48.80
4673;DHT22;61885;53.560;9.940;2022-12-18T10:43:28;-2.50;48.10
4673;DHT22;61885;53.560;9.940;2022-12-18T10:46:02;-2.50;48.80
4673;DHT22;61885;53.560;9.940;2022-12-18T10:48:35;-2.50;51.50
4673;DHT22;61885;53.560;9.940;2022-12-18T10:51:07;-2.50;50.90
4673;DHT22;61885;53.560;9.940;2022-12-18T10:53:41;-2.50;50.90
4673;DHT22;61885;53.560;9.940;2022-12-18T10:56:20;-2.60;51.80
4673;DHT22;61885;53.560;9.940;2022-12-18T10:58:57;-2.50;52.40
4673;DHT22;61885;53.560;9.940;2022-12-18T11:01:46;-2.50;51.80
4673;DHT22;61885;53.560;9.940;2022-12-18T11:04:19;-2.40;52.10
4673;DHT22;61885;53.560;9.940;2022-12-18T11:06:55;-2.50;52.90
4673;DHT22;61885;53.560;9.940;2022-12-18T11:09:30;-2.30;52.70
4673;DHT22;61885;53.560;9.940;2022-12-18T11:12:13;-2.20;49.30
4673;DHT22;61885;53.560;9.940;2022-12-18T11:14:47;-2.30;49.10
4673;DHT22;61885;53.560;9.940;2022-12-18T11:17:28;-2.30;49.90
4673;DHT22;61885;53.560;9.940;2022-12-18T11:20:00;-2.30;48.30
4673;DHT22;61885;53.560;9.940;2022-12-18T11:22:32;-2.20;49.10
4673;DHT22;61885;53.560;9.940;2022-12-18T11:25:17;-2.20;47.80
4673;DHT22;61885;53.560;9.940;2022-12-18T11:27:48;-2.10;49.20
4673;DHT22;61885;53.560;9.940;2022-12-18T11:30:24;-2.10;47.90
4673;DHT22;61885;53.560;9.940;2022-12-18T11:32:58;-2.00;46.10
4673;DHT22;61885;53.560;9.940;2022-12-18T11:35:42;-2.00;47.20
4673;DHT22;61885;53.560;9.940;2022-12-18T11:38:19;-2.10;46.50
4673;DHT22;61885;53.560;9.940;2022-12-18T11:40:58;-2.10;46.30
4673;DHT22;61885;53.560;9.940;2022-12-18T11:43:35;-2.10;46.90
4673;DHT22;61885;53.560;9.940;2022-12-18T11:46:17;-2.00;47.00
4673;DHT22;61885;53.560;9.940;2022-12-18T11:48:54;-2.00;45.80
4673;DHT22;61885;53.560;9.940;2022-12-18T11:51:37;-1.90;46.10
4673;DHT22;61885;53.560;9.940;2022-12-18T11:54:17;-1.70;46.80
4673;DHT22;61885;53.560;9.940;2022-12-18T11:56:56;-1.70;44.10
4673;DHT22;61885;53.560;9.940;2022-12-18T11:59:33;-1.60;42.10
4673;DHT22;61885;53.560;9.940;2022-12-18T12:02:23;-1.60;39.20
4673;DHT22;61885;53.560;9.940;2022-12-18T12:05:06;-1.60;38.50
4673;DHT22;61885;53.560;9.940;2022-12-18T12:07:49;-1.70;37.90
4673;DHT22;61885;53.560;9.940;2022-12-18T12:10:33;-1.60;37.50
4673;DHT22;61885;53.560;9.940;2022-12-18T12:13:22;-1.70;38.50
4673;DHT22;61885;53.560;9.940;2022-12-18T12:16:03;-1.70;38.30
4673;DHT22;61885;53.560;9.940;2022-12-18T12:18:45;-1.50;39.50
4673;DHT22;61885;53.560;9.940;2022-12-18T12:21:26;-1.50;37.50
4673;DHT22;61885;53.560;9.940;2022-12-18T12:24:04;-1.60;37.60
4673;DHT22;61885;53.560;9.940;2022-12-18T12:26:45;-1.60;38.70
4673;DHT22;61885;53.560;9.940;2022-12-18T12:29:37;-1.60;38.30
4673;DHT22;61885;53.560;9.940;2022-12-18T12:32:22;-1.60;39.10
4673;DHT22;61885;53.560;9.940;2022-12-18T12:35:11;-1.50;37.30
4673;DHT22;61885;53.560;9.940;2022-12-18T12:37:53;-1.60;35.80
4673;DHT22;61885;53.560;9.940;2022-12-18T12:40:45;-1.50;35.20
4673;DHT22;61885;53.560;9.940;2022-12-18T12:43:33;-1.50;37.40
4673;DHT22;61885;53.560;9.940;2022-12-18T12:46:17;-1.50;36.80
4673;DHT22;61885;53.560;9.940;2022-12-18T12:48:55;-1.30;36.50
4673;DHT22;61885;53.560;9.940;2022-12-18T12:51:33;-1.30;35.30
4673;DHT22;61885;53.560;9.940;2022-12-18T12:54:17;-1.40;32.90
4673;DHT22;61885;53.560;9.940;2022-12-18T12:56:59;-1.20;34.20
4673;DHT22;61885;53.560;9.940;2022-12-18T12:59:39;-1.20;33.10
4673;DHT22;61885;53.560;9.940;2022-12-18T13:02:20;-1.20;32.00
4673;DHT22;61885;53.560;9.940;2022-12-18T13:05:03;-1.20;32.30
4673;DHT22;61885;53.560;9.940;2022-12-18T13:07:47;-1.20;32.10
4673;DHT22;61885;53.560;9.940;2022-12-18T13:10:31;-1.20;32.60
4673;DHT22;61885;53.560;9.940;2022-12-18T13:13:05;-1.10;30.90
4673;DHT22;61885;53.560;9.940;2022-12-18T13:15:42;-1.10;28.70
4673;DHT22;61885;53.560;9.940;2022-12-18T13:18:25;-1.10;31.10
4673;DHT22;61885;53.560;9.940;2022-12-18T13:21:17;-1.20;29.10
4673;DHT22;61885;53.560;9.940;2022-12-18T13:24:19;-1.20;29.80
4673;DHT22;61885;53.560;9.940;2022-12-18T13:27:02;-1.20;29.20
4673;DHT22;61885;53.560;9.940;2022-12-18T13:30:02;-1.30;30.40
4673;DHT22;61885;53.560;9.940;2022-12-18T13:32:39;-1.40;29.60
4673;DHT22;61885;53.560;9.940;2022-12-18T13:35:42;-1.50;28.30
4673;DHT22;61885;53.560;9.940;2022-12-18T13:38:37;-1.50;28.30
4673;DHT22;61885;53.560;9.940;2022-12-18T13:41:26;-1.70;28.90
4673;DHT22;61885;53.560;9.940;2022-12-18T13:44:11;-1.80;29.80
4673;DHT22;61885;53.560;9.940;2022-12-18T13:46:47;-1.80;31.60
4673;DHT22;61885;53.560;9.940;2022-12-18T13:49:24;-1.90;32.20
4673;DHT22;61885;53.560;9.940;2022-12-18T13:52:16;-1.90;34.80
4673;DHT22;61885;53.560;9.940;2022-12-18T13:54:49;-1.90;35.00
4673;DHT22;61885;53.560;9.940;2022-12-18T13:57:29;-1.90;34.80
4673;DHT22;61885;53.560;9.940;2022-12-18T14:00:30;-1.90;35.50
4673;DHT22;61885;53.560;9.940;2022-12-18T14:03:01;-1.90;35.40
4673;DHT22;61885;53.560;9.940;2022-12-18T14:05:36;-1.90;36.50
4673;DHT22;61885;53.560;9.940;2022-12-18T14:08:23;-1.90;37.90
4673;DHT22;61885;53.560;9.940;2022-12-18T14:10:59;-1.60;43.10
4673;DHT22;61885;53.560;9.940;2022-12-18T14:13:33;-1.40;34.00
4673;DHT22;61885;53.560;9.940;2022-12-18T14:16:06;-1.50;34.70
4673;DHT22;61885;53.560;9.940;2022-12-18T14:18:48;-1.80;35.60
4673;DHT22;61885;53.560;9.940;2022-12-18T14:21:26;-1.90;33.70
4673;DHT22;61885;53.560;9.940;2022-12-18T14:24:14;-2.10;36.00
4673;DHT22;61885;53.560;9.940;2022-12-18T14:26:54;-2.10;37.50
4673;DHT22;61885;53.560;9.940;2022-12-18T14:29:30;-2.20;38.60
4673;DHT22;61885;53.560;9.940;2022-12-18T14:32:15;-2.30;41.00
4673;DHT22;61885;53.560;9.940;2022-12-18T14:35:17;-2.30;40.00
4673;DHT22;61885;53.560;9.940;2022-12-18T14:37:47;-2.40;41.50
4673;DHT22;61885;53.560;9.940;2022-12-18T14:40:20;-2.40;41.50
4673;DHT22;61885;53.560;9.940;2022-12-18T14:42:50;-2.50;43.40
4673;DHT22;61885;53.560;9.940;2022-12-18T14:45:38;-2.40;45.00
4673;DHT22;61885;53.560;9.940;2022-12-18T14:48:16;-2.50;46.30
4673;DHT22;61885;53.560;9.940;2022-12-18T14:50:58;-2.40;46.40
4673;DHT22;61885;53.560;9.940;2022-12-18T14:53:37;-2.50;48.60
4673;DHT22;61885;53.560;9.940;2022-12-18T14:56:18;-2.50;48.80
4673;DHT22;61885;53.560;9.940;2022-12-18T14:58:51;-2.60;49.80
4673;DHT22;61885;53.560;9.940;2022-12-18T15:01:26;-2.50;50.10
4673;DHT22;61885;53.560;9.940;2022-12-18T15:03:58;-2.60;49.50
4673;DHT22;61885;53.560;9.940;2022-12-18T15:06:36;-2.60;49.70
4673;DHT22;61885;53.560;9.940;2022-12-18T15:09:23;-2.70;50.90
4673;DHT22;61885;53.560;9.940;2022-12-18T15:11:59;-2.70;52.80
4673;DHT22;61885;53.560;9.940;2022-12-18T15:14:38;-2.80;55.40
4673;DHT22;61885;53.560;9.940;2022-12-18T15:17:17;-2.80;55.60
4673;DHT22;61885;53.560;9.940;2022-12-18T15:19:51;-2.80;56.30
4673;DHT22;61885;53.560;9.940;2022-12-18T15:22:26;-2.80;59.30
4673;DHT22;61885;53.560;9.940;2022-12-18T15:24:57;-2.80;61.00
4673;DHT22;61885;53.560;9.940;2022-12-18T15:27:35;-2.80;60.60
4673;DHT22;61885;53.560;9.940;2022-12-18T15:30:22;-2.80;62.60
4673;DHT22;61885;53.560;9.940;2022-12-18T15:33:16;-2.70;61.10
4673;DHT22;61885;53.560;9.940;2022-12-18T15:35:47;-2.60;57.50
4673;DHT22;61885;53.560;9.940;2022-12-18T15:38:27;-2.70;55.10
4673;DHT22;61885;53.560;9.940;2022-12-18T15:40:59;-3.40;56.80
4673;DHT22;61885;53.560;9.940;2022-12-18T15:43:38;-2.80;60.70
4673;DHT22;61885;53.560;9.940;2022-12-18T15:46:09;-2.70;57.40
4673;DHT22;61885;53.560;9.940;2022-12-18T15:48:51;-2.60;59.60
4673;DHT22;61885;53.560;9.940;2022-12-18T15:51:26;-2.80;58.80
4673;DHT22;61885;53.560;9.940;2022-12-18T15:53:59;-2.80;59.90
4673;DHT22;61885;53.560;9.940;2022-12-18T15:56:32;-2.70;57.70
4673;DHT22;61885;53.560;9.940;2022-12-18T15:59:21;-2.70;60.30
4673;DHT22;61885;53.560;9.940;2022-12-18T16:01:52;-2.60;58.60
4673;DHT22;61885;53.560;9.940;2022-12-18T16:04:25;-2.70;59.00
4673;DHT22;61885;53.560;9.940;2022-12-18T16:06:55;-2.80;62.60
4673;DHT22;61885;53.560;9.940;2022-12-18T16:09:25;-2.80;64.80
4673;DHT22;61885;53.560;9.940;2022-12-18T16:11:55;-2.70;64.00
4673;DHT22;61885;53.560;9.940;2022-12-18T16:14:35;-2.70;63.90
4673;DHT22;61885;53.560;9.940;2022-12-18T16:17:12;-2.70;64.80
4673;DHT22;61885;53.560;9.940;2022-12-18T16:19:46;-2.70;63.40
4673;DHT22;61885;53.560;9.940;2022-12-18T16:22:22;-2.70;64.50
4673;DHT22;61885;53.560;9.940;2022-12-18T16:25:02;-2.70;66.90
4673;DHT22;61885;53.560;9.940;2022-12-18T16:27:36;-2.70;67.50
4673;DHT22;61885;53.560;9.940;2022-12-18T16:30:16;-2.80;69.20
4673;DHT22;61885;53.560;9.940;2022-12-18T16:32:48;-2.80;70.50
4673;DHT22;61885;53.560;9.940;2022-12-18T16:35:18;-2.80;73.40
4673;DHT22;61885;53.560;9.940;2022-12-18T16:37:48;-2.70;72.30
4673;DHT22;61885;53.560;9.940;2022-12-18T16:40:22;-2.70;72.30